sensor_id;sensor_type;location;lat;lon;timestamp;P1;durP1;ratioP1;P2;durP2;ratioP2
19897;SDS011;10111;50.814;4.572;2023-07-13T00:00:03;4.43;;;1.90;;
19897;SDS011;10111;50.814;4.572;2023-07-13T00:02:34;3.97;;;1.90;;
19897;SDS011;10111;50.814;4.572;2023-07-13T00:05:00;9.47;;;2.00;;
19897;SDS011;10111;50.814;4.572;2023-07-13T00:07:25;8.03;;;1.87;;
19897;SDS011;10111;50.814;4.572;2023-07-13T00:09:51;7.00;;;2.03;;
19897;SDS011;10111;50.814;4.572;2023-07-13T00:12:34;5.30;;;2.13;;
19897;SDS011;10111;50.814;4.572;2023-07-13T00:15:02;6.60;;;2.33;;
19897;SDS011;10111;50.814;4.572;2023-07-13T00:17:30;6.20;;;2.17;;
19897;SDS011;10111;50.814;4.572;2023-07-13T00:19:56;4.83;;;1.90;;
19897;SDS011;10111;50.814;4.572;2023-07-13T00:22:23;3.50;;;1.80;;
19897;SDS011;10111;50.814;4.572;2023-07-13T00:24:53;6.10;;;2.03;;
19897;SDS011;10111;50.814;4.572;2023-07-13T00:27:22;3.53;;;2.10;;
19897;SDS011;10111;50.814;4.572;2023-07-13T00:29:48;4.87;;;1.83;;
19897;SDS011;10111;50.814;4.572;2023-07-13T00:32:14;4.07;;;1.50;;
19897;SDS011;10111;50.814;4.572;2023-07-13T00:34:40;7.23;;;2.67;;
19897;SDS011;10111;50.814;4.572;2023-07-13T00:37:06;4.77;;;2.53;;
19897;SDS011;10111;50.814;4.572;2023-07-13T00:39:33;3.80;;;1.93;;
19897;SDS011;10111;50.814;4.572;2023-07-13T00:41:59;3.67;;;1.63;;
19897;SDS011;10111;50.814;4.572;2023-07-13T00:44:26;4.53;;;1.90;;
19897;SDS011;10111;50.814;4.572;2023-07-13T00:46:52;6.13;;;2.13;;
19897;SDS011;10111;50.814;4.572;2023-07-13T00:49:19;4.37;;;1.67;;
19897;SDS011;10111;50.814;4.572;2023-07-13T00:52:04;7.73;;;2.17;;
19897;SDS011;10111;50.814;4.572;2023-07-13T00:54:33;5.77;;;2.03;;
19897;SDS011;10111;50.814;4.572;2023-07-13T00:57:07;9.53;;;3.60;;
19897;SDS011;10111;50.814;4.572;2023-07-13T00:59:36;6.03;;;2.40;;
19897;SDS011;10111;50.814;4.572;2023-07-13T01:02:04;5.80;;;1.90;;
19897;SDS011;10111;50.814;4.572;2023-07-13T01:04:30;5.60;;;2.13;;
19897;SDS011;10111;50.814;4.572;2023-07-13T01:06:56;5.20;;;2.40;;
19897;SDS011;10111;50.814;4.572;2023-07-13T01:09:22;6.57;;;2.40;;
19897;SDS011;10111;50.814;4.572;2023-07-13T01:11:48;6.23;;;2.10;;
19897;SDS011;10111;50.814;4.572;2023-07-13T01:14:14;4.23;;;1.77;;
19897;SDS011;10111;50.814;4.572;2023-07-13T01:16:42;5.87;;;1.67;;
19897;SDS011;10111;50.814;4.572;2023-07-13T01:19:12;5.97;;;2.10;;
19897;SDS011;10111;50.814;4.572;2023-07-13T01:21:50;3.13;;;1.97;;
19897;SDS011;10111;50.814;4.572;2023-07-13T01:24:17;2.67;;;1.90;;
19897;SDS011;10111;50.814;4.572;2023-07-13T01:26:43;6.40;;;2.87;;
19897;SDS011;10111;50.814;4.572;2023-07-13T01:29:08;8.23;;;2.13;;
19897;SDS011;10111;50.814;4.572;2023-07-13T01:31:34;8.30;;;2.43;;
19897;SDS011;10111;50.814;4.572;2023-07-13T01:34:00;7.07;;;2.87;;
19897;SDS011;10111;50.814;4.572;2023-07-13T01:36:25;5.93;;;2.03;;
19897;SDS011;10111;50.814;4.572;2023-07-13T01:38:51;6.50;;;2.13;;
19897;SDS011;10111;50.814;4.572;2023-07-13T01:41:17;3.03;;;1.73;;
19897;SDS011;10111;50.814;4.572;2023-07-13T01:43:42;4.70;;;2.00;;
19897;SDS011;10111;50.814;4.572;2023-07-13T01:46:08;7.27;;;2.13;;
19897;SDS011;10111;50.814;4.572;2023-07-13T01:48:34;5.10;;;2.27;;
19897;SDS011;10111;50.814;4.572;2023-07-13T01:50:59;5.33;;;2.23;;
19897;SDS011;10111;50.814;4.572;2023-07-13T01:53:25;6.50;;;2.03;;
19897;SDS011;10111;50.814;4.572;2023-07-13T01:55:51;5.33;;;2.40;;
19897;SDS011;10111;50.814;4.572;2023-07-13T01:58:17;7.53;;;3.70;;
19897;SDS011;10111;50.814;4.572;2023-07-13T02:00:43;8.07;;;3.07;;
19897;SDS011;10111;50.814;4.572;2023-07-13T02:03:08;4.40;;;1.93;;
19897;SDS011;10111;50.814;4.572;2023-07-13T02:05:34;8.87;;;2.60;;
19897;SDS011;10111;50.814;4.572;2023-07-13T02:08:01;6.20;;;2.13;;
19897;SDS011;10111;50.814;4.572;2023-07-13T02:10:26;7.97;;;2.00;;
19897;SDS011;10111;50.814;4.572;2023-07-13T02:12:53;3.93;;;2.03;;
19897;SDS011;10111;50.814;4.572;2023-07-13T02:15:19;6.43;;;1.87;;
19897;SDS011;10111;50.814;4.572;2023-07-13T02:17:44;7.47;;;2.80;;
19897;SDS011;10111;50.814;4.572;2023-07-13T02:20:10;5.03;;;1.97;;
19897;SDS011;10111;50.814;4.572;2023-07-13T02:22:36;7.10;;;2.90;;
19897;SDS011;10111;50.814;4.572;2023-07-13T02:25:01;7.47;;;2.30;;
19897;SDS011;10111;50.814;4.572;2023-07-13T02:27:27;4.03;;;2.33;;
19897;SDS011;10111;50.814;4.572;2023-07-13T02:29:53;6.83;;;2.57;;
19897;SDS011;10111;50.814;4.572;2023-07-13T02:32:19;6.83;;;2.20;;
19897;SDS011;10111;50.814;4.572;2023-07-13T02:34:44;10.53;;;2.77;;
19897;SDS011;10111;50.814;4.572;2023-07-13T02:37:10;7.80;;;5.50;;
19897;SDS011;10111;50.814;4.572;2023-07-13T02:39:36;4.90;;;3.47;;
19897;SDS011;10111;50.814;4.572;2023-07-13T02:42:01;5.83;;;3.30;;
19897;SDS011;10111;50.814;4.572;2023-07-13T02:44:28;8.13;;;2.70;;
19897;SDS011;10111;50.814;4.572;2023-07-13T02:46:54;4.43;;;1.97;;
19897;SDS011;10111;50.814;4.572;2023-07-13T02:49:19;8.10;;;2.53;;
19897;SDS011;10111;50.814;4.572;2023-07-13T02:51:45;6.80;;;2.57;;
19897;SDS011;10111;50.814;4.572;2023-07-13T02:54:11;6.17;;;2.77;;
19897;SDS011;10111;50.814;4.572;2023-07-13T02:56:38;7.50;;;2.73;;
19897;SDS011;10111;50.814;4.572;2023-07-13T02:59:04;7.43;;;2.47;;
19897;SDS011;10111;50.814;4.572;2023-07-13T03:01:30;8.37;;;2.90;;
19897;SDS011;10111;50.814;4.572;2023-07-13T03:03:57;5.30;;;2.30;;
19897;SDS011;10111;50.814;4.572;2023-07-13T03:06:23;3.33;;;1.90;;
19897;SDS011;10111;50.814;4.572;2023-07-13T03:08:49;10.67;;;3.80;;
19897;SDS011;10111;50.814;4.572;2023-07-13T03:11:17;5.87;;;2.43;;
19897;SDS011;10111;50.814;4.572;2023-07-13T03:13:43;4.97;;;1.97;;
19897;SDS011;10111;50.814;4.572;2023-07-13T03:16:09;11.90;;;3.57;;
19897;SDS011;10111;50.814;4.572;2023-07-13T03:18:36;5.73;;;2.60;;
19897;SDS011;10111;50.814;4.572;2023-07-13T03:21:03;7.23;;;2.77;;
19897;SDS011;10111;50.814;4.572;2023-07-13T03:23:30;7.33;;;3.40;;
19897;SDS011;10111;50.814;4.572;2023-07-13T03:28:29;7.00;;;3.17;;
19897;SDS011;10111;50.814;4.572;2023-07-13T03:31:05;10.40;;;2.83;;
19897;SDS011;10111;50.814;4.572;2023-07-13T03:33:33;4.93;;;3.37;;
19897;SDS011;10111;50.814;4.572;2023-07-13T03:35:59;6.23;;;2.63;;
19897;SDS011;10111;50.814;4.572;2023-07-13T03:38:25;7.37;;;2.60;;
19897;SDS011;10111;50.814;4.572;2023-07-13T03:40:51;8.80;;;2.73;;
19897;SDS011;10111;50.814;4.572;2023-07-13T03:43:17;5.50;;;2.90;;
19897;SDS011;10111;50.814;4.572;2023-07-13T03:45:43;12.57;;;2.73;;
19897;SDS011;10111;50.814;4.572;2023-07-13T03:48:08;6.50;;;2.40;;
19897;SDS011;10111;50.814;4.572;2023-07-13T03:50:34;8.10;;;2.50;;
19897;SDS011;10111;50.814;4.572;2023-07-13T03:53:00;4.23;;;2.17;;
19897;SDS011;10111;50.814;4.572;2023-07-13T03:55:26;8.90;;;2.87;;
19897;SDS011;10111;50.814;4.572;2023-07-13T03:57:53;6.03;;;2.87;;
19897;SDS011;10111;50.814;4.572;2023-07-13T04:00:23;7.90;;;2.67;;
19897;SDS011;10111;50.814;4.572;2023-07-13T04:02:49;9.07;;;2.80;;
19897;SDS011;10111;50.814;4.572;2023-07-13T04:05:15;9.33;;;3.00;;
19897;SDS011;10111;50.814;4.572;2023-07-13T04:07:41;7.17;;;2.67;;
19897;SDS011;10111;50.814;4.572;2023-07-13T04:10:07;6.60;;;2.93;;
19897;SDS011;10111;50.814;4.572;2023-07-13T04:12:32;7.63;;;2.50;;
19897;SDS011;10111;50.814;4.572;2023-07-13T04:14:58;7.90;;;2.70;;
19897;SDS011;10111;50.814;4.572;2023-07-13T04:17:24;5.87;;;2.27;;
19897;SDS011;10111;50.814;4.572;2023-07-13T04:19:50;7.93;;;2.97;;
19897;SDS011;10111;50.814;4.572;2023-07-13T04:22:15;5.43;;;3.87;;
19897;SDS011;10111;50.814;4.572;2023-07-13T04:24:41;10.20;;;3.03;;
19897;SDS011;10111;50.814;4.572;2023-07-13T04:27:07;4.93;;;3.27;;
19897;SDS011;10111;50.814;4.572;2023-07-13T04:29:32;13.63;;;4.10;;
19897;SDS011;10111;50.814;4.572;2023-07-13T04:31:58;10.47;;;2.90;;
19897;SDS011;10111;50.814;4.572;2023-07-13T04:34:24;11.50;;;4.00;;
19897;SDS011;10111;50.814;4.572;2023-07-13T04:36:50;6.83;;;2.67;;
19897;SDS011;10111;50.814;4.572;2023-07-13T04:39:15;9.40;;;3.63;;
19897;SDS011;10111;50.814;4.572;2023-07-13T04:41:41;7.90;;;2.83;;
19897;SDS011;10111;50.814;4.572;2023-07-13T04:44:07;10.53;;;2.73;;
19897;SDS011;10111;50.814;4.572;2023-07-13T04:46:32;8.00;;;3.17;;
19897;SDS011;10111;50.814;4.572;2023-07-13T04:48:58;10.47;;;2.53;;
19897;SDS011;10111;50.814;4.572;2023-07-13T04:51:24;11.77;;;3.93;;
19897;SDS011;10111;50.814;4.572;2023-07-13T04:53:50;7.90;;;3.43;;
19897;SDS011;10111;50.814;4.572;2023-07-13T04:56:16;5.27;;;2.90;;
19897;SDS011;10111;50.814;4.572;2023-07-13T04:58:42;14.90;;;3.60;;
19897;SDS011;10111;50.814;4.572;2023-07-13T05:01:07;6.67;;;2.47;;
19897;SDS011;10111;50.814;4.572;2023-07-13T05:03:34;17.90;;;4.23;;
19897;SDS011;10111;50.814;4.572;2023-07-13T05:06:01;9.27;;;2.70;;
19897;SDS011;10111;50.814;4.572;2023-07-13T05:08:31;10.40;;;2.90;;
19897;SDS011;10111;50.814;4.572;2023-07-13T05:11:01;9.17;;;3.10;;
19897;SDS011;10111;50.814;4.572;2023-07-13T05:13:29;9.67;;;3.00;;
19897;SDS011;10111;50.814;4.572;2023-07-13T05:15:58;8.57;;;3.00;;
19897;SDS011;10111;50.814;4.572;2023-07-13T05:18:26;11.77;;;3.33;;
19897;SDS011;10111;50.814;4.572;2023-07-13T05:20:57;13.03;;;3.87;;
19897;SDS011;10111;50.814;4.572;2023-07-13T05:23:33;5.20;;;2.30;;
19897;SDS011;10111;50.814;4.572;2023-07-13T05:25:59;10.50;;;3.10;;
19897;SDS011;10111;50.814;4.572;2023-07-13T05:28:26;6.30;;;3.10;;
19897;SDS011;10111;50.814;4.572;2023-07-13T05:30:52;6.30;;;2.73;;
19897;SDS011;10111;50.814;4.572;2023-07-13T05:33:19;6.60;;;3.37;;
19897;SDS011;10111;50.814;4.572;2023-07-13T05:35:45;11.93;;;2.77;;
19897;SDS011;10111;50.814;4.572;2023-07-13T05:38:11;11.00;;;2.53;;
19897;SDS011;10111;50.814;4.572;2023-07-13T05:40:37;11.37;;;3.03;;
19897;SDS011;10111;50.814;4.572;2023-07-13T05:43:02;7.23;;;2.83;;
19897;SDS011;10111;50.814;4.572;2023-07-13T05:45:28;10.33;;;3.67;;
19897;SDS011;10111;50.814;4.572;2023-07-13T05:47:54;6.23;;;3.57;;
19897;SDS011;10111;50.814;4.572;2023-07-13T05:50:20;11.03;;;2.90;;
19897;SDS011;10111;50.814;4.572;2023-07-13T05:52:46;6.60;;;2.57;;
19897;SDS011;10111;50.814;4.572;2023-07-13T05:55:12;9.37;;;2.90;;
19897;SDS011;10111;50.814;4.572;2023-07-13T05:57:38;6.90;;;3.53;;
19897;SDS011;10111;50.814;4.572;2023-07-13T06:00:04;6.27;;;3.23;;
19897;SDS011;10111;50.814;4.572;2023-07-13T06:02:30;9.13;;;2.90;;
19897;SDS011;10111;50.814;4.572;2023-07-13T06:04:55;11.43;;;3.80;;
19897;SDS011;10111;50.814;4.572;2023-07-13T06:07:21;8.23;;;3.07;;
19897;SDS011;10111;50.814;4.572;2023-07-13T06:09:47;9.77;;;3.27;;
19897;SDS011;10111;50.814;4.572;2023-07-13T06:12:12;9.83;;;2.93;;
19897;SDS011;10111;50.814;4.572;2023-07-13T06:14:38;12.07;;;3.10;;
19897;SDS011;10111;50.814;4.572;2023-07-13T06:17:04;8.57;;;2.97;;
19897;SDS011;10111;50.814;4.572;2023-07-13T06:19:30;7.83;;;3.07;;
19897;SDS011;10111;50.814;4.572;2023-07-13T06:21:55;11.60;;;4.83;;
19897;SDS011;10111;50.814;4.572;2023-07-13T06:24:21;10.53;;;3.57;;
19897;SDS011;10111;50.814;4.572;2023-07-13T06:26:47;8.30;;;3.90;;
19897;SDS011;10111;50.814;4.572;2023-07-13T06:29:12;9.03;;;3.70;;
19897;SDS011;10111;50.814;4.572;2023-07-13T06:31:38;12.43;;;3.70;;
19897;SDS011;10111;50.814;4.572;2023-07-13T06:34:04;7.27;;;3.23;;
19897;SDS011;10111;50.814;4.572;2023-07-13T06:36:29;11.70;;;3.50;;
19897;SDS011;10111;50.814;4.572;2023-07-13T06:38:55;7.13;;;3.17;;
19897;SDS011;10111;50.814;4.572;2023-07-13T06:41:21;9.80;;;3.13;;
19897;SDS011;10111;50.814;4.572;2023-07-13T06:43:47;8.17;;;3.13;;
19897;SDS011;10111;50.814;4.572;2023-07-13T06:46:13;6.63;;;3.23;;
19897;SDS011;10111;50.814;4.572;2023-07-13T06:48:38;8.17;;;3.07;;
19897;SDS011;10111;50.814;4.572;2023-07-13T06:51:04;7.37;;;3.30;;
19897;SDS011;10111;50.814;4.572;2023-07-13T06:53:30;7.00;;;2.73;;
19897;SDS011;10111;50.814;4.572;2023-07-13T06:55:55;9.63;;;3.10;;
19897;SDS011;10111;50.814;4.572;2023-07-13T06:58:21;8.30;;;3.43;;
19897;SDS011;10111;50.814;4.572;2023-07-13T07:00:50;11.47;;;3.67;;
19897;SDS011;10111;50.814;4.572;2023-07-13T07:03:16;9.67;;;3.30;;
19897;SDS011;10111;50.814;4.572;2023-07-13T07:05:42;10.40;;;3.40;;
19897;SDS011;10111;50.814;4.572;2023-07-13T07:08:08;8.57;;;3.03;;
19897;SDS011;10111;50.814;4.572;2023-07-13T07:10:34;9.93;;;2.90;;
19897;SDS011;10111;50.814;4.572;2023-07-13T07:13:00;7.23;;;3.27;;
19897;SDS011;10111;50.814;4.572;2023-07-13T07:15:26;8.37;;;4.33;;
19897;SDS011;10111;50.814;4.572;2023-07-13T07:17:52;10.20;;;3.40;;
19897;SDS011;10111;50.814;4.572;2023-07-13T07:20:18;11.17;;;3.07;;
19897;SDS011;10111;50.814;4.572;2023-07-13T07:22:45;9.13;;;3.20;;
19897;SDS011;10111;50.814;4.572;2023-07-13T07:25:11;7.33;;;3.20;;
19897;SDS011;10111;50.814;4.572;2023-07-13T07:27:37;7.20;;;2.70;;
19897;SDS011;10111;50.814;4.572;2023-07-13T07:30:03;7.57;;;3.27;;
19897;SDS011;10111;50.814;4.572;2023-07-13T07:32:30;6.30;;;2.37;;
19897;SDS011;10111;50.814;4.572;2023-07-13T07:34:56;9.83;;;3.73;;
19897;SDS011;10111;50.814;4.572;2023-07-13T07:37:22;10.87;;;3.47;;
19897;SDS011;10111;50.814;4.572;2023-07-13T07:39:49;8.83;;;2.57;;
19897;SDS011;10111;50.814;4.572;2023-07-13T07:42:14;9.73;;;3.37;;
19897;SDS011;10111;50.814;4.572;2023-07-13T07:44:40;6.07;;;3.00;;
19897;SDS011;10111;50.814;4.572;2023-07-13T07:47:06;9.07;;;3.07;;
19897;SDS011;10111;50.814;4.572;2023-07-13T07:49:33;6.43;;;2.23;;
19897;SDS011;10111;50.814;4.572;2023-07-13T07:51:59;5.47;;;2.90;;
19897;SDS011;10111;50.814;4.572;2023-07-13T07:54:24;9.13;;;3.57;;
19897;SDS011;10111;50.814;4.572;2023-07-13T07:56:50;7.60;;;2.47;;
19897;SDS011;10111;50.814;4.572;2023-07-13T07:59:16;6.33;;;3.13;;
19897;SDS011;10111;50.814;4.572;2023-07-13T08:01:41;11.47;;;3.10;;
19897;SDS011;10111;50.814;4.572;2023-07-13T08:04:08;6.50;;;2.60;;
19897;SDS011;10111;50.814;4.572;2023-07-13T08:06:34;6.77;;;2.43;;
19897;SDS011;10111;50.814;4.572;2023-07-13T08:09:00;5.13;;;3.07;;
19897;SDS011;10111;50.814;4.572;2023-07-13T08:11:27;5.83;;;3.30;;
19897;SDS011;10111;50.814;4.572;2023-07-13T08:13:53;9.90;;;3.10;;
19897;SDS011;10111;50.814;4.572;2023-07-13T08:16:18;3.50;;;2.07;;
19897;SDS011;10111;50.814;4.572;2023-07-13T08:18:44;6.87;;;3.30;;
19897;SDS011;10111;50.814;4.572;2023-07-13T08:21:10;10.27;;;3.13;;
19897;SDS011;10111;50.814;4.572;2023-07-13T08:23:35;7.77;;;2.40;;
19897;SDS011;10111;50.814;4.572;2023-07-13T08:26:01;5.80;;;2.77;;
19897;SDS011;10111;50.814;4.572;2023-07-13T08:28:29;2.87;;;2.57;;
19897;SDS011;10111;50.814;4.572;2023-07-13T08:30:59;7.03;;;2.30;;
19897;SDS011;10111;50.814;4.572;2023-07-13T08:33:29;6.80;;;2.67;;
19897;SDS011;10111;50.814;4.572;2023-07-13T08:35:55;8.87;;;2.90;;
19897;SDS011;10111;50.814;4.572;2023-07-13T08:38:21;6.17;;;2.07;;
19897;SDS011;10111;50.814;4.572;2023-07-13T08:40:55;5.07;;;2.03;;
19897;SDS011;10111;50.814;4.572;2023-07-13T08:43:25;5.93;;;2.93;;
19897;SDS011;10111;50.814;4.572;2023-07-13T08:45:55;7.63;;;2.10;;
19897;SDS011;10111;50.814;4.572;2023-07-13T08:48:30;9.67;;;2.40;;
19897;SDS011;10111;50.814;4.572;2023-07-13T08:51:02;5.40;;;2.00;;
19897;SDS011;10111;50.814;4.572;2023-07-13T08:53:52;5.77;;;2.30;;
19897;SDS011;10111;50.814;4.572;2023-07-13T08:56:23;8.80;;;2.77;;
19897;SDS011;10111;50.814;4.572;2023-07-13T08:58:55;7.03;;;2.33;;
19897;SDS011;10111;50.814;4.572;2023-07-13T09:04:42;4.87;;;2.50;;
19897;SDS011;10111;50.814;4.572;2023-07-13T09:10:20;2.97;;;1.97;;
19897;SDS011;10111;50.814;4.572;2023-07-13T09:15:43;6.30;;;2.37;;
19897;SDS011;10111;50.814;4.572;2023-07-13T09:18:11;6.33;;;2.50;;
19897;SDS011;10111;50.814;4.572;2023-07-13T09:20:56;6.23;;;1.80;;
19897;SDS011;10111;50.814;4.572;2023-07-13T09:23:33;3.77;;;1.80;;
19897;SDS011;10111;50.814;4.572;2023-07-13T09:26:06;7.17;;;1.93;;
19897;SDS011;10111;50.814;4.572;2023-07-13T09:28:40;4.70;;;1.77;;
19897;SDS011;10111;50.814;4.572;2023-07-13T09:31:28;5.70;;;1.87;;
19897;SDS011;10111;50.814;4.572;2023-07-13T09:33:59;3.90;;;2.20;;
19897;SDS011;10111;50.814;4.572;2023-07-13T09:36:29;4.43;;;2.00;;
19897;SDS011;10111;50.814;4.572;2023-07-13T09:44:27;8.23;;;1.97;;
19897;SDS011;10111;50.814;4.572;2023-07-13T09:46:56;5.33;;;2.67;;
19897;SDS011;10111;50.814;4.572;2023-07-13T09:49:25;5.33;;;2.00;;
19897;SDS011;10111;50.814;4.572;2023-07-13T09:52:25;5.67;;;2.10;;
19897;SDS011;10111;50.814;4.572;2023-07-13T09:54:44;4.53;;;1.60;;
19897;SDS011;10111;50.814;4.572;2023-07-13T09:57:18;4.53;;;2.10;;
19897;SDS011;10111;50.814;4.572;2023-07-13T09:59:49;4.67;;;2.03;;
19897;SDS011;10111;50.814;4.572;2023-07-13T10:02:37;5.23;;;1.60;;
19897;SDS011;10111;50.814;4.572;2023-07-13T10:05:13;5.77;;;2.13;;
19897;SDS011;10111;50.814;4.572;2023-07-13T10:07:44;3.87;;;1.60;;
19897;SDS011;10111;50.814;4.572;2023-07-13T10:10:14;5.07;;;2.40;;
19897;SDS011;10111;50.814;4.572;2023-07-13T10:12:42;4.90;;;1.80;;
19897;SDS011;10111;50.814;4.572;2023-07-13T10:15:19;4.10;;;1.90;;
19897;SDS011;10111;50.814;4.572;2023-07-13T10:17:47;2.73;;;1.73;;
19897;SDS011;10111;50.814;4.572;2023-07-13T10:20:15;3.67;;;2.00;;
19897;SDS011;10111;50.814;4.572;2023-07-13T10:25:18;4.27;;;1.80;;
19897;SDS011;10111;50.814;4.572;2023-07-13T10:27:47;9.77;;;2.63;;
19897;SDS011;10111;50.814;4.572;2023-07-13T10:30:20;8.17;;;2.97;;
19897;SDS011;10111;50.814;4.572;2023-07-13T10:32:50;6.80;;;2.30;;
19897;SDS011;10111;50.814;4.572;2023-07-13T10:35:18;2.83;;;1.73;;
19897;SDS011;10111;50.814;4.572;2023-07-13T10:38:03;7.30;;;1.97;;
19897;SDS011;10111;50.814;4.572;2023-07-13T10:40:39;5.50;;;1.80;;
19897;SDS011;10111;50.814;4.572;2023-07-13T10:43:13;6.40;;;2.10;;
19897;SDS011;10111;50.814;4.572;2023-07-13T10:45:45;3.63;;;1.93;;
19897;SDS011;10111;50.814;4.572;2023-07-13T10:48:15;2.80;;;1.50;;
19897;SDS011;10111;50.814;4.572;2023-07-13T10:50:43;5.80;;;2.37;;
19897;SDS011;10111;50.814;4.572;2023-07-13T10:53:21;3.13;;;2.30;;
19897;SDS011;10111;50.814;4.572;2023-07-13T11:01:09;4.10;;;1.53;;
19897;SDS011;10111;50.814;4.572;2023-07-13T11:06:11;5.30;;;1.57;;
19897;SDS011;10111;50.814;4.572;2023-07-13T11:08:38;4.10;;;1.60;;
19897;SDS011;10111;50.814;4.572;2023-07-13T11:18:41;5.50;;;1.77;;
19897;SDS011;10111;50.814;4.572;2023-07-13T11:21:18;6.37;;;1.60;;
19897;SDS011;10111;50.814;4.572;2023-07-13T11:23:51;3.90;;;1.97;;
19897;SDS011;10111;50.814;4.572;2023-07-13T11:29:48;5.37;;;1.70;;
19897;SDS011;10111;50.814;4.572;2023-07-13T11:31:57;5.33;;;1.53;;
19897;SDS011;10111;50.814;4.572;2023-07-13T11:34:36;4.73;;;1.50;;
19897;SDS011;10111;50.814;4.572;2023-07-13T11:37:03;4.07;;;1.63;;
19897;SDS011;10111;50.814;4.572;2023-07-13T11:39:37;3.93;;;2.60;;
19897;SDS011;10111;50.814;4.572;2023-07-13T11:42:08;3.70;;;1.47;;
19897;SDS011;10111;50.814;4.572;2023-07-13T11:44:41;4.33;;;1.83;;
19897;SDS011;10111;50.814;4.572;2023-07-13T11:47:16;1.90;;;1.40;;
19897;SDS011;10111;50.814;4.572;2023-07-13T11:49:47;2.70;;;1.20;;
19897;SDS011;10111;50.814;4.572;2023-07-13T11:52:16;2.80;;;1.47;;
19897;SDS011;10111;50.814;4.572;2023-07-13T11:54:56;6.33;;;1.47;;
19897;SDS011;10111;50.814;4.572;2023-07-13T11:57:29;2.70;;;1.50;;
19897;SDS011;10111;50.814;4.572;2023-07-13T12:00:00;4.67;;;1.90;;
19897;SDS011;10111;50.814;4.572;2023-07-13T12:02:37;3.60;;;1.70;;
19897;SDS011;10111;50.814;4.572;2023-07-13T12:05:09;3.27;;;1.50;;
19897;SDS011;10111;50.814;4.572;2023-07-13T12:07:38;3.73;;;1.53;;
19897;SDS011;10111;50.814;4.572;2023-07-13T12:12:58;5.33;;;1.57;;
19897;SDS011;10111;50.814;4.572;2023-07-13T12:15:29;1.90;;;1.67;;
19897;SDS011;10111;50.814;4.572;2023-07-13T12:18:17;6.57;;;1.80;;
19897;SDS011;10111;50.814;4.572;2023-07-13T12:20:46;2.83;;;1.60;;
19897;SDS011;10111;50.814;4.572;2023-07-13T12:25:50;2.23;;;1.43;;
19897;SDS011;10111;50.814;4.572;2023-07-13T12:28:51;3.30;;;1.70;;
19897;SDS011;10111;50.814;4.572;2023-07-13T12:31:22;2.80;;;1.30;;
19897;SDS011;10111;50.814;4.572;2023-07-13T12:34:14;4.67;;;1.73;;
19897;SDS011;10111;50.814;4.572;2023-07-13T12:36:54;2.17;;;1.20;;
19897;SDS011;10111;50.814;4.572;2023-07-13T12:39:35;7.10;;;1.63;;
19897;SDS011;10111;50.814;4.572;2023-07-13T12:45:38;2.80;;;1.53;;
19897;SDS011;10111;50.814;4.572;2023-07-13T12:47:47;2.23;;;1.10;;
19897;SDS011;10111;50.814;4.572;2023-07-13T12:50:18;3.23;;;1.37;;
19897;SDS011;10111;50.814;4.572;2023-07-13T12:52:50;3.30;;;1.40;;
19897;SDS011;10111;50.814;4.572;2023-07-13T12:55:18;2.53;;;1.20;;
19897;SDS011;10111;50.814;4.572;2023-07-13T12:57:55;8.00;;;1.63;;
19897;SDS011;10111;50.814;4.572;2023-07-13T13:00:59;3.20;;;1.73;;
19897;SDS011;10111;50.814;4.572;2023-07-13T13:03:24;4.57;;;1.00;;
19897;SDS011;10111;50.814;4.572;2023-07-13T13:06:25;1.63;;;1.53;;
19897;SDS011;10111;50.814;4.572;2023-07-13T13:08:45;4.80;;;1.97;;
19897;SDS011;10111;50.814;4.572;2023-07-13T13:11:22;3.50;;;1.70;;
19897;SDS011;10111;50.814;4.572;2023-07-13T13:13:49;3.33;;;1.60;;
19897;SDS011;10111;50.814;4.572;2023-07-13T13:16:20;3.43;;;2.00;;
19897;SDS011;10111;50.814;4.572;2023-07-13T13:18:57;4.17;;;1.77;;
19897;SDS011;10111;50.814;4.572;2023-07-13T13:21:27;3.57;;;2.10;;
19897;SDS011;10111;50.814;4.572;2023-07-13T13:23:52;2.00;;;1.80;;
19897;SDS011;10111;50.814;4.572;2023-07-13T13:26:19;3.03;;;2.30;;
19897;SDS011;10111;50.814;4.572;2023-07-13T13:28:46;6.17;;;2.27;;
19897;SDS011;10111;50.814;4.572;2023-07-13T13:31:15;2.83;;;1.93;;
19897;SDS011;10111;50.814;4.572;2023-07-13T13:33:41;4.27;;;1.90;;
19897;SDS011;10111;50.814;4.572;2023-07-13T13:36:17;2.40;;;1.60;;
19897;SDS011;10111;50.814;4.572;2023-07-13T13:38:45;4.17;;;1.93;;
19897;SDS011;10111;50.814;4.572;2023-07-13T13:41:12;3.50;;;2.00;;
19897;SDS011;10111;50.814;4.572;2023-07-13T13:43:42;5.83;;;2.70;;
19897;SDS011;10111;50.814;4.572;2023-07-13T13:48:54;2.17;;;1.70;;
19897;SDS011;10111;50.814;4.572;2023-07-13T13:51:22;3.83;;;1.90;;
19897;SDS011;10111;50.814;4.572;2023-07-13T13:53:49;2.77;;;1.90;;
19897;SDS011;10111;50.814;4.572;2023-07-13T13:56:15;2.90;;;1.90;;
19897;SDS011;10111;50.814;4.572;2023-07-13T13:58:43;3.20;;;1.80;;
19897;SDS011;10111;50.814;4.572;2023-07-13T14:01:13;3.47;;;1.50;;
19897;SDS011;10111;50.814;4.572;2023-07-13T14:03:42;3.87;;;1.63;;
19897;SDS011;10111;50.814;4.572;2023-07-13T14:06:11;3.70;;;1.87;;
19897;SDS011;10111;50.814;4.572;2023-07-13T14:08:38;2.07;;;1.80;;
19897;SDS011;10111;50.814;4.572;2023-07-13T14:11:03;3.63;;;1.80;;
19897;SDS011;10111;50.814;4.572;2023-07-13T14:13:37;1.53;;;1.40;;
19897;SDS011;10111;50.814;4.572;2023-07-13T14:16:10;3.53;;;1.80;;
19897;SDS011;10111;50.814;4.572;2023-07-13T14:18:37;3.33;;;1.47;;
19897;SDS011;10111;50.814;4.572;2023-07-13T14:21:08;1.87;;;1.43;;
19897;SDS011;10111;50.814;4.572;2023-07-13T14:23:43;3.63;;;1.90;;
19897;SDS011;10111;50.814;4.572;2023-07-13T14:26:11;1.93;;;1.37;;
19897;SDS011;10111;50.814;4.572;2023-07-13T14:28:39;2.23;;;1.30;;
19897;SDS011;10111;50.814;4.572;2023-07-13T14:31:08;5.30;;;1.93;;
19897;SDS011;10111;50.814;4.572;2023-07-13T14:33:34;4.70;;;1.80;;
19897;SDS011;10111;50.814;4.572;2023-07-13T14:36:00;3.90;;;1.50;;
19897;SDS011;10111;50.814;4.572;2023-07-13T14:38:26;8.97;;;2.50;;
19897;SDS011;10111;50.814;4.572;2023-07-13T14:40:52;1.80;;;1.40;;
19897;SDS011;10111;50.814;4.572;2023-07-13T14:43:18;2.70;;;1.33;;
19897;SDS011;10111;50.814;4.572;2023-07-13T14:45:44;6.33;;;2.03;;
19897;SDS011;10111;50.814;4.572;2023-07-13T14:48:21;1.43;;;1.30;;
19897;SDS011;10111;50.814;4.572;2023-07-13T14:50:53;4.40;;;1.60;;
19897;SDS011;10111;50.814;4.572;2023-07-13T14:53:21;2.23;;;1.33;;
19897;SDS011;10111;50.814;4.572;2023-07-13T14:55:47;2.00;;;1.47;;
19897;SDS011;10111;50.814;4.572;2023-07-13T14:58:13;5.77;;;1.93;;
19897;SDS011;10111;50.814;4.572;2023-07-13T15:00:39;3.90;;;1.90;;
19897;SDS011;10111;50.814;4.572;2023-07-13T15:03:05;4.20;;;1.67;;
19897;SDS011;10111;50.814;4.572;2023-07-13T15:05:46;2.50;;;1.40;;
19897;SDS011;10111;50.814;4.572;2023-07-13T15:08:13;2.17;;;1.30;;
19897;SDS011;10111;50.814;4.572;2023-07-13T15:10:40;3.90;;;1.60;;
19897;SDS011;10111;50.814;4.572;2023-07-13T15:13:19;2.23;;;1.67;;
19897;SDS011;10111;50.814;4.572;2023-07-13T15:15:46;3.60;;;1.80;;
19897;SDS011;10111;50.814;4.572;2023-07-13T15:18:21;1.87;;;1.30;;
19897;SDS011;10111;50.814;4.572;2023-07-13T15:20:50;1.47;;;1.27;;
19897;SDS011;10111;50.814;4.572;2023-07-13T15:23:17;3.80;;;1.57;;
19897;SDS011;10111;50.814;4.572;2023-07-13T15:25:43;3.40;;;1.80;;
19897;SDS011;10111;50.814;4.572;2023-07-13T15:28:09;3.13;;;1.60;;
19897;SDS011;10111;50.814;4.572;2023-07-13T15:30:46;4.03;;;2.23;;
19897;SDS011;10111;50.814;4.572;2023-07-13T15:33:19;1.70;;;1.50;;
19897;SDS011;10111;50.814;4.572;2023-07-13T15:35:54;3.60;;;1.83;;
19897;SDS011;10111;50.814;4.572;2023-07-13T15:40:47;3.27;;;1.87;;
19897;SDS011;10111;50.814;4.572;2023-07-13T15:43:15;2.27;;;1.70;;
19897;SDS011;10111;50.814;4.572;2023-07-13T15:45:42;2.77;;;1.97;;